KHPN

Westchester County Airport

White Plains, New York, USA
METAR KHPN 201556Z VRB05KT 10SM BKN016 BKN028 22/17 A3014 RMK AO2 RAB1458E11 SLP203 P0000 T02220167
Observed Flight Rules
Aug-20 @ 15:56 UTC (30 minutes ago) Marginal Visual Flight Rules
Wind Visibility Clouds
Variable at 5 knots 10 miles
  • Broken at 1,600' AGL
  • Broken at 2,800' AGL
Temperatures Readings Precipitation
Current 22°C / 72°F
Dewpoint 17°C / 63°F
Humidity 73%
Altimeter 30.14" Hg
Pressure 1020.3 hPa
Elevation 121
Current Rain 0.005
METAR KHPN 201556Z VRB05KT 10SM BKN016 BKN028 22/17 A3014 RMK AO2 RAB1458E11 SLP203 P0000 T02220167
Observed Flight Rules
Aug-20 @ 15:56 UTC
(30 minutes ago)
MVFR
Wind Visibility
Variable at 5 knots 10 miles
Clouds
  • Broken at 1,600' AGL
  • Broken at 2,800' AGL
Temperature Dewpoint
22°C / 72°F 17°C / 63°F
Humidity Altimeter Pressure
73% 30.14" Hg 1020.3 hPa
Current Rain
0.005